METAR Data

Data at: 1101 UTC 21 Apr 2021

METAR for:KFMH (Otis ANGB, MA, US)
Text:KFMH 211055Z 00000KT 10SM CLR 07/07 A2987
Temperature: 7.0°C ( 45°F)
Dewpoint: 7.0°C ( 45°F) [RH = 100%]
Pressure (altimeter):29.87 inches Hg (1011.6 mb)
Winds:calm
Visibility:10 or more sm (16+ km)
Ceiling:at least 12,000 feet AGL
Clouds:sky clear below 12,000 feet AGL